createdAt,value
2022-11-20T00:01:26.610Z,15.30
2022-11-20T00:03:55.058Z,15.80
2022-11-20T00:06:22.724Z,14.90
2022-11-20T00:08:49.651Z,14.30
2022-11-20T00:11:21.507Z,15.18
2022-11-20T00:13:49.947Z,14.15
2022-11-20T00:16:19.313Z,14.23
2022-11-20T00:18:46.387Z,15.48
2022-11-20T00:21:18.117Z,14.52
2022-11-20T00:23:44.883Z,14.52
2022-11-20T00:26:14.410Z,15.25
2022-11-20T00:28:41.594Z,14.80
2022-11-20T00:31:16.933Z,13.90
2022-11-20T00:33:44.654Z,14.23
2022-11-20T00:36:13.887Z,14.38
2022-11-20T00:38:40.743Z,16.08
2022-11-20T00:41:10.179Z,14.27
2022-11-20T00:43:37.488Z,14.65
2022-11-20T00:46:10.116Z,14.90
2022-11-20T00:48:36.758Z,15.18
2022-11-20T00:51:03.276Z,14.57
2022-11-20T00:53:29.741Z,14.63
2022-11-20T00:55:57.936Z,15.43
2022-11-20T00:58:25.577Z,14.80
2022-11-20T01:00:52.221Z,13.85
2022-11-20T01:03:24.136Z,14.95
2022-11-20T01:05:53.303Z,14.75
2022-11-20T01:08:19.719Z,14.52
2022-11-20T01:10:46.137Z,14.52
2022-11-20T01:13:30.970Z,14.32
2022-11-20T01:16:03.684Z,14.85
2022-11-20T01:18:30.127Z,14.48
2022-11-20T01:20:56.610Z,14.20
2022-11-20T01:23:23.202Z,13.98
2022-11-20T01:25:49.718Z,13.88
2022-11-20T01:28:16.238Z,13.73
2022-11-20T01:30:42.685Z,14.95
2022-11-20T01:33:09.106Z,15.00
2022-11-20T01:35:35.606Z,13.90
2022-11-20T01:38:02.057Z,13.25
2022-11-20T01:40:28.471Z,14.98
2022-11-20T01:43:24.191Z,15.13
2022-11-20T01:46:20.501Z,14.95
2022-11-20T01:48:56.955Z,14.13
2022-11-20T01:51:44.731Z,13.93
2022-11-20T01:54:18.075Z,13.93
2022-11-20T01:56:47.405Z,13.82
2022-11-20T01:59:18.942Z,15.15
2022-11-20T02:01:46.094Z,14.73
2022-11-20T02:04:14.735Z,15.05
2022-11-20T02:07:24.946Z,14.85
2022-11-20T02:09:57.384Z,14.55
2022-11-20T02:12:43.624Z,14.68
2022-11-20T02:15:10.485Z,15.18
2022-11-20T02:17:37.078Z,13.90
2022-11-20T02:20:05.358Z,15.65
2022-11-20T02:22:39.507Z,14.82
2022-11-20T02:25:08.645Z,14.75
2022-11-20T02:27:35.263Z,14.65
2022-11-20T02:30:04.515Z,14.70
2022-11-20T02:32:33.846Z,14.25
2022-11-20T02:35:27.681Z,14.45
2022-11-20T02:37:56.826Z,14.98
2022-11-20T02:40:23.927Z,15.55
2022-11-20T02:42:57.766Z,14.85
2022-11-20T02:45:24.999Z,15.85
2022-11-20T02:47:52.314Z,14.30
2022-11-20T02:50:19.010Z,15.52
2022-11-20T02:52:45.426Z,15.18
2022-11-20T02:55:12.019Z,16.10
2022-11-20T02:57:38.479Z,15.43
2022-11-20T03:00:05.642Z,14.70
2022-11-20T03:02:32.456Z,17.05
2022-11-20T03:04:59.133Z,14.50
2022-11-20T03:07:26.551Z,15.95
2022-11-20T03:09:53.042Z,14.68
2022-11-20T03:12:19.482Z,15.25
2022-11-20T03:14:50.189Z,15.07
2022-11-20T03:17:19.341Z,14.93
2022-11-20T03:19:45.790Z,16.25
2022-11-20T03:22:12.245Z,15.90
2022-11-20T03:24:38.730Z,15.50
2022-11-20T03:27:05.223Z,15.35
2022-11-20T03:29:31.690Z,15.93
2022-11-20T03:31:58.227Z,16.77
2022-11-20T03:34:24.794Z,15.57
2022-11-20T03:36:51.187Z,16.65
2022-11-20T03:39:17.581Z,16.48
2022-11-20T03:41:44.388Z,16.73
2022-11-20T03:44:12.378Z,16.63
2022-11-20T03:46:39.180Z,15.55
2022-11-20T03:49:05.760Z,16.45
2022-11-20T03:51:34.569Z,18.50
2022-11-20T03:54:04.364Z,15.40
2022-11-20T03:56:33.223Z,15.80
2022-11-20T03:59:00.003Z,15.82
2022-11-20T04:01:29.287Z,15.35
2022-11-20T04:03:57.344Z,15.88
2022-11-20T04:06:26.835Z,16.70
2022-11-20T04:08:56.473Z,16.40
2022-11-20T04:11:26.022Z,16.70
2022-11-20T04:13:58.055Z,16.25
2022-11-20T04:16:26.085Z,17.55
2022-11-20T04:18:57.348Z,16.83
2022-11-20T04:21:24.600Z,16.23
2022-11-20T04:23:52.230Z,15.88
2022-11-20T04:26:18.682Z,16.77
2022-11-20T04:28:45.107Z,16.52
2022-11-20T04:31:17.488Z,16.88
2022-11-20T04:33:44.601Z,16.00
2022-11-20T04:36:17.347Z,15.90
2022-11-20T04:38:44.207Z,16.52
2022-11-20T04:41:21.999Z,16.45
2022-11-20T04:43:50.425Z,16.55
2022-11-20T04:46:21.295Z,17.00
2022-11-20T04:48:48.828Z,15.75
2022-11-20T04:51:15.719Z,16.95
2022-11-20T04:53:42.950Z,17.02
2022-11-20T04:56:11.960Z,16.27
2022-11-20T04:58:39.160Z,16.52
2022-11-20T05:01:09.770Z,16.45
2022-11-20T05:03:41.060Z,17.20
2022-11-20T05:06:10.375Z,17.20
2022-11-20T05:08:36.858Z,17.42
2022-11-20T05:11:08.921Z,17.25
2022-11-20T05:13:35.398Z,16.25
2022-11-20T05:16:06.659Z,16.85
2022-11-20T05:18:34.807Z,16.73
2022-11-20T05:21:01.273Z,17.73
2022-11-20T05:23:28.459Z,16.65
2022-11-20T05:25:59.229Z,17.63
2022-11-20T05:28:27.021Z,17.30
2022-11-20T05:30:53.496Z,17.35
2022-11-20T05:33:19.974Z,17.73
2022-11-20T05:35:46.409Z,18.17
2022-11-20T05:38:12.884Z,18.13
2022-11-20T05:40:39.386Z,17.73
2022-11-20T05:43:05.871Z,16.80
2022-11-20T05:45:32.362Z,18.08
2022-11-20T05:48:01.129Z,15.60
2022-11-20T05:50:30.982Z,17.13
2022-11-20T05:53:00.989Z,19.17
2022-11-20T05:55:28.351Z,17.35
2022-11-20T05:57:55.829Z,18.60
2022-11-20T06:00:22.689Z,18.45
2022-11-20T06:02:49.265Z,18.17
2022-11-20T06:05:15.786Z,17.25
2022-11-20T06:07:42.588Z,17.13
2022-11-20T06:10:09.480Z,17.20
2022-11-20T06:12:35.982Z,18.05
2022-11-20T06:15:02.684Z,18.48
2022-11-20T06:17:29.096Z,18.02
2022-11-20T06:19:55.523Z,18.17
2022-11-20T06:22:21.917Z,18.40
2022-11-20T06:24:48.721Z,18.60
2022-11-20T06:27:15.281Z,16.50
2022-11-20T06:29:41.779Z,17.50
2022-11-20T06:32:08.221Z,17.95
2022-11-20T06:34:34.675Z,18.15
2022-11-20T06:37:01.203Z,17.95
2022-11-20T06:39:27.716Z,18.40
2022-11-20T06:41:58.549Z,17.85
2022-11-20T06:46:52.023Z,18.65
2022-11-20T06:49:18.448Z,17.73
2022-11-20T06:51:44.885Z,19.25
2022-11-20T06:54:11.420Z,18.98
2022-11-20T06:56:37.818Z,18.30
2022-11-20T06:59:08.102Z,18.05
2022-11-20T07:01:35.927Z,20.08
2022-11-20T07:04:02.997Z,17.35
2022-11-20T07:06:29.516Z,17.83
2022-11-20T07:08:55.965Z,19.05
2022-11-20T07:11:22.422Z,18.48
2022-11-20T07:13:48.837Z,19.08
2022-11-20T07:16:15.329Z,18.58
2022-11-20T07:18:45.924Z,18.92
2022-11-20T07:21:15.761Z,18.90
2022-11-20T07:23:42.213Z,17.92
2022-11-20T07:26:11.520Z,18.58
2022-11-20T07:28:38.344Z,17.70
2022-11-20T07:31:05.932Z,18.60
2022-11-20T07:33:32.433Z,18.20
2022-11-20T07:36:02.283Z,18.92
2022-11-20T07:38:28.735Z,17.02
2022-11-20T07:40:58.707Z,17.73
2022-11-20T07:43:26.220Z,17.13
2022-11-20T07:45:52.769Z,17.98
2022-11-20T07:48:19.144Z,18.23
2022-11-20T07:50:45.572Z,18.65
2022-11-20T07:53:13.354Z,18.58
2022-11-20T07:55:39.795Z,18.58
2022-11-20T07:58:06.445Z,18.52
2022-11-20T08:00:33.056Z,18.40
2022-11-20T08:02:59.630Z,18.98
2022-11-20T08:05:26.030Z,18.02
2022-11-20T08:07:52.453Z,18.08
2022-11-20T08:10:18.995Z,18.05
2022-11-20T08:13:08.905Z,17.88
2022-11-20T08:15:36.390Z,17.80
2022-11-20T08:21:04.760Z,19.42
2022-11-20T08:23:31.956Z,19.17
2022-11-20T08:25:58.444Z,18.70
2022-11-20T08:28:24.897Z,17.30
2022-11-20T08:30:51.726Z,17.35
2022-11-20T08:33:18.869Z,19.85
2022-11-20T08:35:45.437Z,18.05
2022-11-20T08:38:11.945Z,17.77
2022-11-20T08:40:38.498Z,18.10
2022-11-20T08:43:05.300Z,18.27
2022-11-20T08:45:34.496Z,18.52
2022-11-20T08:48:04.783Z,19.08
2022-11-20T08:50:33.336Z,18.50
2022-11-20T08:53:07.172Z,19.77
2022-11-20T08:55:36.282Z,19.15
2022-11-20T08:58:06.097Z,18.65
2022-11-20T09:00:33.932Z,18.00
2022-11-20T09:03:02.106Z,18.42
2022-11-20T09:05:28.773Z,18.20
2022-11-20T09:07:59.087Z,18.77
2022-11-20T09:10:26.241Z,17.90
2022-11-20T09:12:53.494Z,18.40
2022-11-20T09:15:20.715Z,18.30
2022-11-20T09:17:59.131Z,18.08
2022-11-20T09:20:26.910Z,18.20
2022-11-20T09:22:53.358Z,19.05
2022-11-20T09:25:19.791Z,19.20
2022-11-20T09:27:47.053Z,18.65
2022-11-20T09:30:15.689Z,18.33
2022-11-20T09:32:43.388Z,17.88
2022-11-20T09:35:09.853Z,17.77
2022-11-20T09:37:36.441Z,17.83
2022-11-20T09:40:02.986Z,18.85
2022-11-20T09:42:52.703Z,17.75
2022-11-20T09:45:29.673Z,18.08
2022-11-20T09:48:23.957Z,18.60
2022-11-20T09:51:02.906Z,17.38
2022-11-20T09:53:45.959Z,17.30
2022-11-20T09:56:16.995Z,17.35
2022-11-20T09:58:54.724Z,19.42
2022-11-20T10:01:27.049Z,17.88
2022-11-20T10:04:04.505Z,19.13
2022-11-20T10:06:40.612Z,18.00
2022-11-20T10:09:16.996Z,17.50
2022-11-20T10:12:22.316Z,17.05
2022-11-20T10:15:07.449Z,17.70
2022-11-20T10:17:51.963Z,18.30
2022-11-20T10:20:33.568Z,17.52
2022-11-20T10:28:35.817Z,16.95
2022-11-20T10:31:09.325Z,17.00
2022-11-20T10:34:10.610Z,18.38
2022-11-20T10:36:51.571Z,17.10
2022-11-20T10:39:23.104Z,16.23
2022-11-20T10:41:52.871Z,16.90
2022-11-20T10:44:42.926Z,17.63
2022-11-20T10:47:17.336Z,16.73
2022-11-20T10:49:50.569Z,17.55
2022-11-20T10:52:32.210Z,17.98
2022-11-20T10:57:47.663Z,17.15
2022-11-20T11:00:14.832Z,17.38
2022-11-20T11:02:48.928Z,16.38
2022-11-20T11:05:21.227Z,17.45
2022-11-20T11:07:51.449Z,16.08
2022-11-20T11:10:39.462Z,15.27
2022-11-20T11:13:05.901Z,15.88
2022-11-20T11:15:40.735Z,15.30
2022-11-20T11:18:11.406Z,15.45
2022-11-20T11:20:38.474Z,11.20
2022-11-20T11:23:06.527Z,14.90
2022-11-20T11:25:37.546Z,15.10
2022-11-20T11:28:19.059Z,15.52
2022-11-20T11:30:46.221Z,14.18
2022-11-20T11:33:27.442Z,14.52
2022-11-20T11:36:03.746Z,13.88
2022-11-20T11:38:35.177Z,14.25
2022-11-20T11:41:02.501Z,13.68
2022-11-20T11:43:55.958Z,13.95
2022-11-20T11:46:36.317Z,14.77
2022-11-20T11:49:17.157Z,13.50
2022-11-20T11:52:04.794Z,14.27
2022-11-20T11:54:34.570Z,12.95
2022-11-20T11:57:04.588Z,14.43
2022-11-20T12:00:09.100Z,14.30
2022-11-20T12:02:40.079Z,14.35
2022-11-20T12:05:44.621Z,14.48
2022-11-20T12:08:40.304Z,14.32
2022-11-20T12:11:20.149Z,14.07
2022-11-20T12:13:52.461Z,13.25
2022-11-20T12:16:20.998Z,13.40
2022-11-20T12:18:50.956Z,12.50
2022-11-20T12:21:23.096Z,11.85
2022-11-20T12:24:07.614Z,9.77
2022-11-20T12:26:57.232Z,11.35
2022-11-20T12:29:51.272Z,10.90
2022-11-20T12:32:23.362Z,9.93
2022-11-20T12:35:17.577Z,10.13
2022-11-20T12:38:02.328Z,8.05
2022-11-20T12:40:43.628Z,8.98
2022-11-20T12:43:40.660Z,9.20
2022-11-20T12:46:07.018Z,9.60
2022-11-20T12:48:50.133Z,8.43
2022-11-20T12:51:19.408Z,8.75
2022-11-20T12:54:10.049Z,9.38
2022-11-20T12:57:18.214Z,8.50
2022-11-20T12:59:54.231Z,9.38
2022-11-20T13:02:27.041Z,9.52
2022-11-20T13:05:10.697Z,10.45
2022-11-20T13:07:37.641Z,9.23
2022-11-20T13:10:11.733Z,10.15
2022-11-20T13:12:52.646Z,10.45
2022-11-20T13:15:35.064Z,9.27
2022-11-20T13:18:04.100Z,9.77
2022-11-20T13:20:34.084Z,11.10
2022-11-20T13:23:00.707Z,10.40
2022-11-20T13:25:27.148Z,10.35
2022-11-20T13:27:55.055Z,11.05
2022-11-20T13:30:26.686Z,10.35
2022-11-20T13:33:00.732Z,9.82
2022-11-20T13:35:30.518Z,10.02
2022-11-20T13:38:09.707Z,10.20
2022-11-20T13:40:52.253Z,10.52
2022-11-20T13:43:41.679Z,9.75
2022-11-20T13:46:10.103Z,9.93
2022-11-20T13:48:42.355Z,10.13
2022-11-20T13:51:23.217Z,10.82
2022-11-20T13:54:18.979Z,7.68
2022-11-20T13:57:04.236Z,9.20
2022-11-20T13:59:52.196Z,9.40
2022-11-20T14:02:20.686Z,10.07
2022-11-20T14:04:50.399Z,9.43
2022-11-20T14:07:19.751Z,9.90
2022-11-20T14:09:54.477Z,9.90
2022-11-20T14:12:32.988Z,9.48
2022-11-20T14:14:59.890Z,10.20
2022-11-20T14:17:35.846Z,9.57
2022-11-20T14:20:06.282Z,9.07
2022-11-20T14:22:33.111Z,9.63
2022-11-20T14:25:15.118Z,9.32
2022-11-20T14:27:43.866Z,8.27
2022-11-20T14:30:16.092Z,9.30
2022-11-20T14:32:43.937Z,9.57
2022-11-20T14:35:19.928Z,8.93
2022-11-20T14:37:46.669Z,10.48
2022-11-20T14:40:36.020Z,9.90
2022-11-20T14:43:17.224Z,8.93
2022-11-20T14:45:44.781Z,8.55
2022-11-20T14:48:12.424Z,9.05
2022-11-20T14:50:39.263Z,9.15
2022-11-20T14:53:05.915Z,10.45
2022-11-20T14:55:38.230Z,9.63
2022-11-20T14:58:07.504Z,10.60
2022-11-20T15:00:35.760Z,9.75
2022-11-20T15:03:02.321Z,10.43
2022-11-20T15:05:49.252Z,10.25
2022-11-20T15:08:17.202Z,10.23
2022-11-20T15:10:49.281Z,10.85
2022-11-20T15:13:37.153Z,10.93
2022-11-20T15:16:14.184Z,11.15
2022-11-20T15:18:44.682Z,10.65
2022-11-20T15:21:13.482Z,13.07
2022-11-20T15:23:39.955Z,11.43
2022-11-20T15:26:07.788Z,10.90
2022-11-20T15:28:42.125Z,11.82
2022-11-20T15:31:13.061Z,11.95
2022-11-20T15:33:39.587Z,11.13
2022-11-20T15:36:06.148Z,11.25
2022-11-20T15:38:32.585Z,11.60
2022-11-20T15:40:59.113Z,11.98
2022-11-20T15:43:25.552Z,12.60
2022-11-20T15:45:55.594Z,12.13
2022-11-20T15:48:28.914Z,11.02
2022-11-20T15:51:18.017Z,12.48
2022-11-20T15:53:44.613Z,11.88
2022-11-20T15:56:15.036Z,12.13
2022-11-20T15:58:42.316Z,11.55
2022-11-20T16:01:17.425Z,10.82
2022-11-20T16:03:44.321Z,12.85
2022-11-20T16:06:10.720Z,10.55
2022-11-20T16:08:37.321Z,11.05
2022-11-20T16:11:04.360Z,11.15
2022-11-20T16:13:51.589Z,11.50
2022-11-20T16:16:22.531Z,11.52
2022-11-20T16:18:49.682Z,11.70
2022-11-20T16:21:16.352Z,11.57
2022-11-20T16:23:43.425Z,10.57
2022-11-20T16:26:14.587Z,12.10
2022-11-20T16:28:41.783Z,12.05
2022-11-20T16:31:17.106Z,12.20
2022-11-20T16:33:43.997Z,11.82
2022-11-20T16:36:15.195Z,11.40
2022-11-20T16:38:42.031Z,11.20
2022-11-20T16:41:15.864Z,12.32
2022-11-20T16:43:52.223Z,11.15
2022-11-20T16:46:21.757Z,11.93
2022-11-20T16:49:03.289Z,13.60
2022-11-20T16:51:32.535Z,13.30
2022-11-20T16:54:02.408Z,11.98
2022-11-20T16:56:28.847Z,12.65
2022-11-20T16:58:57.545Z,12.77
2022-11-20T17:01:25.795Z,12.50
2022-11-20T17:04:03.244Z,12.13
2022-11-20T17:06:34.180Z,12.23
2022-11-20T17:09:00.940Z,12.32
2022-11-20T17:11:28.474Z,12.88
2022-11-20T17:13:56.166Z,14.50
2022-11-20T17:16:24.180Z,14.70
2022-11-20T17:18:50.798Z,14.95
2022-11-20T17:21:18.838Z,15.70
2022-11-20T17:23:46.575Z,16.35
2022-11-20T17:26:22.301Z,16.23
2022-11-20T17:29:02.988Z,15.13
2022-11-20T17:31:31.594Z,16.17
2022-11-20T17:34:00.196Z,15.88
2022-11-20T17:36:28.004Z,16.60
2022-11-20T17:38:54.721Z,16.40
2022-11-20T17:41:25.162Z,17.83
2022-11-20T17:43:56.302Z,17.10
2022-11-20T17:46:25.261Z,17.45
2022-11-20T17:48:52.052Z,17.25
2022-11-20T17:51:27.639Z,17.17
2022-11-20T17:53:56.467Z,15.50
2022-11-20T17:56:41.660Z,18.70
2022-11-20T17:59:12.720Z,17.92
2022-11-20T18:01:40.386Z,17.73
2022-11-20T18:04:07.049Z,18.00
2022-11-20T18:06:33.654Z,16.65
2022-11-20T18:09:02.540Z,17.38
2022-11-20T18:11:33.624Z,17.17
2022-11-20T18:14:21.173Z,16.23
2022-11-20T18:16:53.577Z,15.18
2022-11-20T18:19:32.383Z,16.52
2022-11-20T18:22:01.250Z,14.60
2022-11-20T18:24:28.164Z,14.95
2022-11-20T18:26:54.618Z,16.27
2022-11-20T18:29:21.296Z,14.90
2022-11-20T18:31:48.226Z,15.07
2022-11-20T18:34:14.759Z,15.07
2022-11-20T18:36:42.728Z,15.80
2022-11-20T18:39:11.931Z,15.13
2022-11-20T18:41:57.627Z,15.95
2022-11-20T18:44:45.682Z,16.50
2022-11-20T18:47:15.858Z,17.38
2022-11-20T18:49:52.622Z,18.27
2022-11-20T18:52:25.294Z,17.20
2022-11-20T18:54:51.987Z,16.98
2022-11-20T18:57:24.645Z,17.88
2022-11-20T18:59:51.424Z,18.55
2022-11-20T19:02:20.207Z,18.65
2022-11-20T19:04:47.044Z,17.65
2022-11-20T19:07:15.772Z,18.83
2022-11-20T19:09:44.466Z,18.60
2022-11-20T19:12:12.577Z,18.23
2022-11-20T19:14:39.339Z,17.65
2022-11-20T19:17:06.939Z,18.25
2022-11-20T19:19:36.534Z,20.52
2022-11-20T19:22:04.525Z,17.08
2022-11-20T19:24:31.090Z,15.73
2022-11-20T19:26:57.611Z,15.88
2022-11-20T19:29:25.655Z,16.25
2022-11-20T19:31:52.413Z,15.30
2022-11-20T19:34:18.937Z,16.45
2022-11-20T19:36:45.917Z,15.70
2022-11-20T19:39:12.970Z,16.05
2022-11-20T19:41:40.894Z,16.73
2022-11-20T19:44:09.930Z,16.70
2022-11-20T19:46:37.905Z,16.20
2022-11-20T19:49:07.417Z,15.90
2022-11-20T19:51:35.070Z,16.15
2022-11-20T19:54:01.576Z,17.27
2022-11-20T19:56:29.624Z,15.50
2022-11-20T19:58:57.082Z,15.77
2022-11-20T20:01:26.788Z,16.60
2022-11-20T20:03:54.042Z,16.83
2022-11-20T20:06:26.149Z,15.77
2022-11-20T20:09:06.247Z,16.45
2022-11-20T20:11:34.258Z,16.85
2022-11-20T20:14:02.479Z,15.07
2022-11-20T20:16:29.157Z,17.15
2022-11-20T20:18:57.969Z,18.35
2022-11-20T20:21:24.449Z,17.23
2022-11-20T20:23:53.581Z,16.20
2022-11-20T20:26:21.578Z,16.75
2022-11-20T20:28:48.078Z,17.90
2022-11-20T20:31:17.991Z,17.27
2022-11-20T20:33:45.235Z,16.50
2022-11-20T20:36:13.591Z,17.35
2022-11-20T20:38:40.308Z,17.42
2022-11-20T20:41:06.744Z,16.80
2022-11-20T20:43:53.112Z,16.67
2022-11-20T20:46:20.048Z,17.52
2022-11-20T20:48:50.255Z,16.00
2022-11-20T20:51:20.689Z,17.02
2022-11-20T20:53:47.128Z,16.30
2022-11-20T20:56:13.812Z,16.05
2022-11-20T20:58:40.580Z,16.95
2022-11-20T21:01:09.382Z,16.90
2022-11-20T21:03:36.808Z,16.75
2022-11-20T21:06:05.113Z,17.65
2022-11-20T21:08:31.715Z,16.83
2022-11-20T21:11:03.846Z,15.40
2022-11-20T21:13:30.876Z,16.83
2022-11-20T21:15:57.544Z,15.30
2022-11-20T21:18:26.185Z,16.90
2022-11-20T21:21:11.742Z,16.48
2022-11-20T21:23:38.757Z,16.17
2022-11-20T21:26:09.177Z,16.77
2022-11-20T21:28:37.505Z,12.35
2022-11-20T21:31:09.865Z,15.18
2022-11-20T21:33:44.510Z,16.33
2022-11-20T21:36:14.010Z,16.83
2022-11-20T21:38:40.948Z,15.43
2022-11-20T21:41:08.740Z,15.00
2022-11-20T21:43:35.771Z,16.17
2022-11-20T21:46:08.351Z,15.50
2022-11-20T21:48:37.014Z,16.35
2022-11-20T21:51:28.045Z,16.13
2022-11-20T21:53:55.368Z,15.23
2022-11-20T21:56:24.664Z,16.27
2022-11-20T21:58:53.172Z,16.00
2022-11-20T22:01:27.947Z,15.80
2022-11-20T22:04:02.416Z,17.05
2022-11-20T22:06:34.136Z,17.52
2022-11-20T22:09:03.804Z,16.52
2022-11-20T22:11:30.720Z,16.85
2022-11-20T22:14:15.606Z,16.25
2022-11-20T22:16:42.317Z,16.75
2022-11-20T22:19:09.296Z,16.52
2022-11-20T22:21:38.439Z,15.82
2022-11-20T22:24:04.940Z,14.98
2022-11-20T22:26:39.657Z,16.70
2022-11-20T22:29:07.640Z,17.20
2022-11-20T22:31:34.157Z,16.95
2022-11-20T22:34:02.454Z,17.35
2022-11-20T22:36:31.082Z,16.98
2022-11-20T22:38:58.191Z,17.85
2022-11-20T22:41:27.381Z,16.75
2022-11-20T22:43:56.223Z,19.13
2022-11-20T22:46:23.526Z,19.70
2022-11-20T22:48:51.195Z,19.73
2022-11-20T22:51:22.175Z,19.48
2022-11-20T22:53:49.337Z,20.33
2022-11-20T22:56:17.198Z,20.35
2022-11-20T22:58:48.406Z,20.90
2022-11-20T23:01:20.094Z,21.85
2022-11-20T23:03:48.646Z,20.63
2022-11-20T23:06:16.816Z,21.48
2022-11-20T23:08:43.818Z,21.40
2022-11-20T23:11:12.592Z,21.08
2022-11-20T23:13:39.447Z,19.77
2022-11-20T23:16:17.653Z,22.30
2022-11-20T23:18:44.876Z,20.92
2022-11-20T23:21:13.323Z,20.63
2022-11-20T23:23:40.333Z,21.05
2022-11-20T23:26:12.139Z,21.17
2022-11-20T23:28:40.455Z,21.48
2022-11-20T23:31:07.832Z,21.23
2022-11-20T23:33:39.318Z,22.92
2022-11-20T23:36:06.658Z,22.30
2022-11-20T23:38:33.884Z,20.15
2022-11-20T23:41:01.241Z,20.92
2022-11-20T23:43:27.789Z,21.30
2022-11-20T23:45:59.618Z,21.15
2022-11-20T23:48:28.690Z,20.50
2022-11-20T23:50:55.881Z,22.90
2022-11-20T23:53:22.787Z,19.60
2022-11-20T23:55:54.211Z,20.88
